createdAt,value
2023-08-26T00:00:47.694Z,100072.13
2023-08-26T00:03:50.397Z,100052.19
2023-08-26T00:06:52.721Z,100051.78
2023-08-26T00:09:55.407Z,100070.91
2023-08-26T00:12:57.820Z,100046.50
2023-08-26T00:16:00.524Z,100050.56
2023-08-26T00:19:03.462Z,100055.03
2023-08-26T00:22:06.488Z,100046.50
2023-08-26T00:25:10.494Z,100049.78
2023-08-26T00:28:13.416Z,100054.31
2023-08-26T00:31:16.874Z,100049.00
2023-08-26T00:34:19.830Z,100038.44
2023-08-26T00:37:22.204Z,100056.31
2023-08-26T00:40:24.891Z,100048.97
2023-08-26T00:43:29.001Z,100064.06
2023-08-26T00:46:32.188Z,100055.53
2023-08-26T00:49:35.784Z,100052.28
2023-08-26T00:52:39.702Z,100036.81
2023-08-26T00:55:43.345Z,100053.47
2023-08-26T00:58:46.074Z,100061.22
2023-08-26T01:01:50.546Z,100062.81
2023-08-26T01:04:54.057Z,100076.66
2023-08-26T01:07:57.799Z,100074.25
2023-08-26T01:11:06.699Z,100085.63
2023-08-26T01:14:46.128Z,100094.97
2023-08-26T01:17:49.382Z,100096.22
2023-08-26T01:20:53.382Z,100088.09
2023-08-26T01:23:57.476Z,100086.47
2023-08-26T01:27:00.283Z,100086.03
2023-08-26T01:30:03.184Z,100088.47
2023-08-26T01:33:16.863Z,100097.81
2023-08-26T01:36:24.619Z,100094.16
2023-08-26T01:39:29.288Z,100108.00
2023-08-26T01:42:34.417Z,100095.41
2023-08-26T01:45:36.810Z,100099.44
2023-08-26T01:48:41.126Z,100085.63
2023-08-26T01:51:45.754Z,100066.56
2023-08-26T01:54:50.542Z,100060.84
2023-08-26T01:57:53.693Z,100057.19
2023-08-26T02:00:56.659Z,100064.50
2023-08-26T02:03:59.459Z,100055.56
2023-08-26T02:07:01.865Z,100051.50
2023-08-26T02:10:04.952Z,100064.50
2023-08-26T02:13:08.439Z,100067.75
2023-08-26T02:16:11.285Z,100058.41
2023-08-26T02:19:13.646Z,100053.91
2023-08-26T02:22:17.560Z,100043.72
2023-08-26T02:25:20.921Z,100037.66
2023-08-26T02:28:23.420Z,100034.38
2023-08-26T02:31:26.195Z,100052.28
2023-08-26T02:34:28.603Z,100040.91
2023-08-26T02:37:31.482Z,100048.19
2023-08-26T02:40:33.884Z,100041.28
2023-08-26T02:43:36.738Z,100044.16
2023-08-26T02:46:39.137Z,100037.25
2023-08-26T02:49:42.037Z,100029.94
2023-08-26T02:52:44.513Z,100041.28
2023-08-26T02:55:47.246Z,100044.13
2023-08-26T02:58:49.655Z,100039.66
2023-08-26T03:02:04.697Z,100042.09
2023-08-26T03:05:08.697Z,100045.38
2023-08-26T03:08:11.479Z,100043.34
2023-08-26T03:11:14.475Z,100041.28
2023-08-26T03:14:18.992Z,100043.69
2023-08-26T03:17:21.506Z,100055.06
2023-08-26T03:20:24.768Z,100049.75
2023-08-26T03:23:27.264Z,100063.56
2023-08-26T03:26:29.936Z,100045.25
2023-08-26T03:29:32.377Z,100056.09
2023-08-26T03:32:35.436Z,100045.50
2023-08-26T03:35:39.804Z,100053.59
2023-08-26T03:38:42.472Z,100034.88
2023-08-26T03:41:44.947Z,100050.31
2023-08-26T03:44:47.743Z,100048.72
2023-08-26T03:47:50.630Z,100048.31
2023-08-26T03:50:54.831Z,100058.88
2023-08-26T03:53:57.812Z,100056.03
2023-08-26T03:57:00.544Z,100050.34
2023-08-26T04:00:03.624Z,100043.81
2023-08-26T04:03:07.043Z,100053.50
2023-08-26T04:06:10.523Z,100052.72
2023-08-26T04:09:13.727Z,100049.84
2023-08-26T04:12:16.419Z,100042.94
2023-08-26T04:15:18.942Z,100044.59
2023-08-26T04:18:22.284Z,100064.09
2023-08-26T04:21:25.168Z,100053.16
2023-08-26T04:24:28.873Z,100074.69
2023-08-26T04:27:34.183Z,100067.78
2023-08-26T04:30:40.336Z,100072.28
2023-08-26T04:33:44.940Z,100064.47
2023-08-26T04:36:47.879Z,100068.13
2023-08-26T04:39:51.320Z,100068.97
2023-08-26T04:42:56.883Z,100063.75
2023-08-26T04:46:00.207Z,100062.16
2023-08-26T04:49:03.782Z,100053.22
2023-08-26T04:52:06.406Z,100065.03
2023-08-26T04:55:09.731Z,100066.25
2023-08-26T04:58:12.212Z,100067.06
2023-08-26T05:01:15.352Z,100064.22
2023-08-26T05:04:17.840Z,100063.44
2023-08-26T05:07:21.460Z,100064.66
2023-08-26T05:10:24.544Z,100060.59
2023-08-26T05:13:27.338Z,100066.28
2023-08-26T05:16:29.808Z,100058.13
2023-08-26T05:19:32.524Z,100067.16
2023-08-26T05:22:34.983Z,100071.22
2023-08-26T05:25:37.752Z,100072.06
2023-08-26T05:28:40.143Z,100064.78
2023-08-26T05:31:42.918Z,100061.56
2023-08-26T05:34:45.354Z,100068.47
2023-08-26T05:37:48.202Z,100065.66
2023-08-26T05:40:50.891Z,100070.13
2023-08-26T05:43:53.581Z,100075.41
2023-08-26T05:46:56.941Z,100075.03
2023-08-26T05:50:00.062Z,100067.72
2023-08-26T05:53:05.573Z,100066.94
2023-08-26T05:56:10.771Z,100074.25
2023-08-26T05:59:14.264Z,100069.28
2023-08-26T06:02:17.017Z,100077.69
2023-08-26T06:05:19.844Z,100087.00
2023-08-26T06:08:23.815Z,100073.50
2023-08-26T06:11:27.530Z,100076.25
2023-08-26T06:14:30.180Z,100080.59
2023-08-26T06:17:35.743Z,100086.22
2023-08-26T06:20:38.246Z,100079.12
2023-08-26T06:23:40.996Z,100080.66
2023-08-26T06:26:45.075Z,100081.28
2023-08-26T06:30:04.090Z,100093.19
2023-08-26T06:33:06.781Z,100091.34
2023-08-26T06:36:09.903Z,100099.59
2023-08-26T06:39:12.935Z,100090.84
2023-08-26T06:42:16.036Z,100102.22
2023-08-26T06:45:20.190Z,100112.53
2023-08-26T06:48:24.895Z,100102.69
2023-08-26T06:51:27.387Z,100100.28
2023-08-26T06:54:31.602Z,100099.25
2023-08-26T06:57:35.284Z,100104.44
2023-08-26T07:00:38.006Z,100103.00
2023-08-26T07:03:40.514Z,100104.84
2023-08-26T07:06:43.198Z,100105.44
2023-08-26T07:09:45.620Z,100098.63
2023-08-26T07:12:48.338Z,100102.53
2023-08-26T07:15:50.753Z,100113.25
2023-08-26T07:18:53.482Z,100116.50
2023-08-26T07:21:55.922Z,100112.81
2023-08-26T07:24:58.825Z,100106.09
2023-08-26T07:28:01.372Z,100107.34
2023-08-26T07:31:06.036Z,100099.72
2023-08-26T07:34:09.386Z,100098.34
2023-08-26T07:37:13.122Z,100098.09
2023-08-26T07:40:17.163Z,100101.81
2023-08-26T07:43:19.836Z,100098.94
2023-08-26T07:49:29.741Z,100095.84
2023-08-26T07:52:32.336Z,100095.88
2023-08-26T07:55:35.079Z,100090.78
2023-08-26T07:58:37.524Z,100087.59
2023-08-26T08:01:40.216Z,100086.41
2023-08-26T08:04:43.096Z,100076.75
2023-08-26T08:07:45.600Z,100081.59
2023-08-26T08:10:49.056Z,100085.53
2023-08-26T08:13:52.578Z,100075.66
2023-08-26T08:16:55.376Z,100079.44
2023-08-26T08:19:58.004Z,100061.44
2023-08-26T08:23:00.690Z,100075.22
2023-08-26T08:26:03.207Z,100066.84
2023-08-26T08:29:05.962Z,100071.75
2023-08-26T08:32:08.408Z,100077.87
2023-08-26T08:35:11.290Z,100074.47
2023-08-26T08:38:13.699Z,100069.19
2023-08-26T08:41:16.317Z,100062.00
2023-08-26T08:44:22.851Z,100071.75
2023-08-26T08:47:26.122Z,100067.13
2023-08-26T08:50:32.004Z,100070.00
2023-08-26T08:53:45.507Z,100074.75
2023-08-26T08:56:48.248Z,100061.09
2023-08-26T08:59:53.257Z,100073.03
2023-08-26T09:02:59.224Z,100061.94
2023-08-26T09:06:02.270Z,100055.38
2023-08-26T09:09:19.224Z,100045.72
2023-08-26T09:12:31.111Z,100049.72
2023-08-26T09:15:33.974Z,100041.69
2023-08-26T09:18:40.769Z,100050.06
2023-08-26T09:21:43.980Z,100040.53
2023-08-26T09:24:48.049Z,100034.03
2023-08-26T09:27:50.435Z,100035.44
2023-08-26T09:31:07.063Z,100038.91
2023-08-26T09:34:09.581Z,100032.47
2023-08-26T09:37:13.877Z,100040.63
2023-08-26T09:40:18.092Z,100033.00
2023-08-26T09:43:22.098Z,100033.03
2023-08-26T09:46:24.611Z,100042.75
2023-08-26T09:49:27.419Z,100036.81
2023-08-26T09:52:29.852Z,100037.69
2023-08-26T09:55:33.414Z,100031.34
2023-08-26T09:58:35.841Z,100030.37
2023-08-26T10:01:40.203Z,100026.25
2023-08-26T10:04:45.836Z,100020.09
2023-08-26T10:07:52.785Z,100015.97
2023-08-26T10:10:56.768Z,100016.09
2023-08-26T10:14:01.621Z,100012.78
2023-08-26T10:17:08.694Z,100008.09
2023-08-26T10:20:12.406Z,100008.34
2023-08-26T10:23:15.393Z,100007.13
2023-08-26T10:26:20.200Z,100000.97
2023-08-26T10:29:23.080Z,99991.25
2023-08-26T10:32:29.210Z,99992.03
2023-08-26T10:35:32.150Z,99987.31
2023-08-26T10:38:38.421Z,99980.78
2023-08-26T10:41:41.229Z,99971.06
2023-08-26T10:44:47.386Z,99972.34
2023-08-26T10:47:56.491Z,99965.13
2023-08-26T10:51:03.655Z,99965.28
2023-08-26T10:54:06.605Z,99971.56
2023-08-26T10:57:10.075Z,99965.94
2023-08-26T11:00:13.635Z,99962.69
2023-08-26T11:03:19.341Z,99951.78
2023-08-26T11:06:23.619Z,99950.53
2023-08-26T11:09:26.069Z,99953.94
2023-08-26T11:12:30.274Z,99943.34
2023-08-26T11:15:37.897Z,99941.38
2023-08-26T11:18:40.630Z,99943.97
2023-08-26T11:21:43.026Z,99933.84
2023-08-26T11:24:49.904Z,99930.97
2023-08-26T11:27:52.926Z,99929.97
2023-08-26T11:30:56.161Z,99920.03
2023-08-26T11:33:58.525Z,99925.16
2023-08-26T11:37:01.402Z,99912.59
2023-08-26T11:40:07.871Z,99918.38
2023-08-26T11:43:12.793Z,99918.56
2023-08-26T11:46:15.319Z,99922.81
2023-08-26T11:49:18.142Z,99913.41
2023-08-26T11:52:20.966Z,99919.78
2023-08-26T11:55:24.293Z,99915.38
2023-08-26T11:58:29.440Z,99904.56
2023-08-26T12:01:32.832Z,99907.38
2023-08-26T12:04:38.675Z,99912.69
2023-08-26T12:07:45.797Z,99908.38
2023-08-26T12:10:52.738Z,99916.09
2023-08-26T12:13:55.210Z,99897.69
2023-08-26T12:17:04.703Z,99899.12
2023-08-26T12:20:26.359Z,99905.16
2023-08-26T12:23:30.456Z,99888.03
2023-08-26T12:26:32.803Z,99895.16
2023-08-26T12:29:35.660Z,99900.22
2023-08-26T12:32:38.301Z,99906.31
2023-08-26T12:35:41.123Z,99903.81
2023-08-26T12:38:43.501Z,99903.47
2023-08-26T12:41:46.700Z,99898.62
2023-08-26T12:44:50.008Z,99889.44
2023-08-26T12:47:54.176Z,99898.84
2023-08-26T12:50:56.616Z,99888.94
2023-08-26T12:53:59.310Z,99892.13
2023-08-26T12:57:01.756Z,99893.19
2023-08-26T13:00:05.637Z,99891.03
2023-08-26T13:03:08.099Z,99874.25
2023-08-26T13:06:11.457Z,99875.59
2023-08-26T13:09:13.895Z,99872.41
2023-08-26T13:12:17.487Z,99871.69
2023-08-26T13:15:19.888Z,99871.22
2023-08-26T13:18:22.598Z,99860.94
2023-08-26T13:21:25.493Z,99866.88
2023-08-26T13:24:28.247Z,99860.09
2023-08-26T13:27:31.392Z,99856.16
2023-08-26T13:30:34.314Z,99856.87
2023-08-26T13:33:36.922Z,99846.84
2023-08-26T13:36:50.831Z,99838.66
2023-08-26T13:39:53.946Z,99842.25
2023-08-26T13:42:57.050Z,99846.41
2023-08-26T13:45:59.711Z,99839.84
2023-08-26T13:49:02.415Z,99851.06
2023-08-26T13:52:05.104Z,99844.34
2023-08-26T13:55:08.216Z,99842.13
2023-08-26T13:58:10.655Z,99835.34
2023-08-26T14:01:13.572Z,99826.16
2023-08-26T14:04:16.283Z,99833.56
2023-08-26T14:07:18.660Z,99838.25
2023-08-26T14:10:21.342Z,99828.13
2023-08-26T14:13:23.858Z,99836.91
2023-08-26T14:16:28.417Z,99820.72
2023-08-26T14:19:30.871Z,99826.84
2023-08-26T14:22:33.627Z,99828.50
2023-08-26T14:25:40.486Z,99831.00
2023-08-26T14:28:43.109Z,99829.41
2023-08-26T14:31:45.992Z,99828.63
2023-08-26T14:34:48.765Z,99826.59
2023-08-26T14:37:51.293Z,99829.09
2023-08-26T14:40:54.512Z,99815.25
2023-08-26T14:43:56.900Z,99825.47
2023-08-26T14:46:59.634Z,99807.00
2023-08-26T14:50:02.217Z,99826.78
2023-08-26T14:53:07.447Z,99816.63
2023-08-26T14:56:10.371Z,99807.81
2023-08-26T14:59:13.006Z,99808.78
2023-08-26T15:02:17.257Z,99811.50
2023-08-26T15:05:20.155Z,99808.28
2023-08-26T15:08:22.567Z,99795.75
2023-08-26T15:11:25.321Z,99801.41
2023-08-26T15:14:27.737Z,99809.28
2023-08-26T15:17:30.576Z,99805.56
2023-08-26T15:20:33.092Z,99790.81
2023-08-26T15:23:35.967Z,99806.22
2023-08-26T15:26:38.426Z,99797.72
2023-08-26T15:29:41.129Z,99795.97
2023-08-26T15:32:43.598Z,99794.72
2023-08-26T15:35:53.608Z,99793.44
2023-08-26T15:38:56.206Z,99786.22
2023-08-26T15:41:59.688Z,99775.97
2023-08-26T15:45:02.342Z,99776.62
2023-08-26T15:48:05.474Z,99775.97
2023-08-26T15:51:07.890Z,99783.19
2023-08-26T15:54:10.578Z,99779.66
2023-08-26T15:57:16.750Z,99779.81
2023-08-26T16:00:19.456Z,99773.88
2023-08-26T16:03:22.430Z,99768.59
2023-08-26T16:06:25.357Z,99763.94
2023-08-26T16:09:28.072Z,99753.53
2023-08-26T16:12:30.512Z,99756.25
2023-08-26T16:15:33.896Z,99745.66
2023-08-26T16:18:39.976Z,99744.38
2023-08-26T16:21:42.670Z,99743.38
2023-08-26T16:24:45.221Z,99739.22
2023-08-26T16:27:48.052Z,99734.72
2023-08-26T16:30:50.419Z,99731.69
2023-08-26T16:33:53.094Z,99719.66
2023-08-26T16:36:55.520Z,99719.50
2023-08-26T16:39:59.258Z,99709.84
2023-08-26T16:43:01.871Z,99721.88
2023-08-26T16:46:04.629Z,99708.69
2023-08-26T16:49:07.143Z,99723.59
2023-08-26T16:52:09.774Z,99711.87
2023-08-26T16:55:12.094Z,99722.78
2023-08-26T16:58:15.319Z,99707.03
2023-08-26T17:01:19.074Z,99711.34
2023-08-26T17:04:21.825Z,99714.38
2023-08-26T17:07:24.312Z,99698.47
2023-08-26T17:10:29.454Z,99694.13
2023-08-26T17:13:32.271Z,99703.41
2023-08-26T17:16:35.517Z,99701.50
2023-08-26T17:19:37.945Z,99703.06
2023-08-26T17:22:40.717Z,99695.03
2023-08-26T17:25:44.139Z,99694.03
2023-08-26T17:28:46.829Z,99688.41
2023-08-26T17:31:49.286Z,99698.03
2023-08-26T17:34:52.045Z,99697.50
2023-08-26T17:37:54.461Z,99696.84
2023-08-26T17:40:57.851Z,99687.81
2023-08-26T17:44:00.239Z,99686.16
2023-08-26T17:47:04.022Z,99696.03
2023-08-26T17:50:07.338Z,99698.25
2023-08-26T17:53:12.149Z,99711.06
2023-08-26T17:56:14.838Z,99713.75
2023-08-26T17:59:17.531Z,99718.97
2023-08-26T18:02:19.915Z,99731.44
2023-08-26T18:05:22.567Z,99745.62
2023-08-26T18:08:25.185Z,99740.44
2023-08-26T18:11:28.031Z,99737.38
2023-08-26T18:14:30.408Z,99745.22
2023-08-26T18:17:37.261Z,99756.84
2023-08-26T18:20:39.837Z,99752.41
2023-08-26T18:23:42.617Z,99758.75
2023-08-26T18:26:45.042Z,99766.25
2023-08-26T18:29:47.862Z,99767.75
2023-08-26T18:32:50.464Z,99763.53
2023-08-26T18:35:53.244Z,99770.66
2023-08-26T18:38:55.675Z,99785.88
2023-08-26T18:41:58.505Z,99770.09
2023-08-26T18:45:01.198Z,99772.63
2023-08-26T18:48:04.284Z,99775.62
2023-08-26T18:51:06.898Z,99790.03
2023-08-26T18:54:09.694Z,99798.88
2023-08-26T18:57:12.256Z,99792.31
2023-08-26T19:00:15.066Z,99800.25
2023-08-26T19:03:17.664Z,99805.00
2023-08-26T19:06:20.467Z,99798.75
2023-08-26T19:09:22.976Z,99810.63
2023-08-26T19:12:25.732Z,99804.97
2023-08-26T19:15:28.111Z,99816.91
2023-08-26T19:18:30.776Z,99814.38
2023-08-26T19:21:33.206Z,99807.00
2023-08-26T19:24:35.989Z,99807.59
2023-08-26T19:27:38.370Z,99808.59
2023-08-26T19:30:45.918Z,99808.38
2023-08-26T19:33:48.394Z,99813.53
2023-08-26T19:36:51.090Z,99816.97
2023-08-26T19:39:53.465Z,99815.34
2023-08-26T19:42:56.533Z,99799.81
2023-08-26T19:45:59.195Z,99786.03
2023-08-26T19:49:02.056Z,99776.12
2023-08-26T19:52:04.684Z,99786.88
2023-08-26T19:55:07.684Z,99788.13
2023-08-26T19:58:11.157Z,99792.91
2023-08-26T20:01:13.884Z,99791.28
2023-08-26T20:04:16.685Z,99781.34
2023-08-26T20:07:19.065Z,99790.84
2023-08-26T20:10:21.715Z,99773.47
2023-08-26T20:13:24.092Z,99781.19
2023-08-26T20:16:26.913Z,99778.41
2023-08-26T20:19:29.357Z,99780.16
2023-08-26T20:22:31.960Z,99767.97
2023-08-26T20:25:45.754Z,99769.66
2023-08-26T20:28:50.340Z,99766.66
2023-08-26T20:31:54.029Z,99768.72
2023-08-26T20:34:56.973Z,99772.47
2023-08-26T20:37:59.729Z,99763.16
2023-08-26T20:41:04.914Z,99752.69
2023-08-26T20:44:07.860Z,99758.97
2023-08-26T20:47:11.429Z,99761.12
2023-08-26T20:50:13.861Z,99772.13
2023-08-26T20:53:16.572Z,99769.47
2023-08-26T20:56:19.022Z,99773.25
2023-08-26T20:59:22.050Z,99771.81
2023-08-26T21:02:24.493Z,99783.66
2023-08-26T21:05:29.862Z,99790.81
2023-08-26T21:08:33.465Z,99782.31
2023-08-26T21:11:36.075Z,99780.06
2023-08-26T21:14:38.499Z,99795.66
2023-08-26T21:17:41.760Z,99792.63
2023-08-26T21:20:44.485Z,99787.03
2023-08-26T21:23:48.808Z,99791.22
2023-08-26T21:26:51.601Z,99799.94
2023-08-26T21:29:54.354Z,99796.78
2023-08-26T21:32:57.599Z,99786.84
2023-08-26T21:36:02.651Z,99802.41
2023-08-26T21:39:05.474Z,99809.84
2023-08-26T21:42:08.255Z,99795.97
2023-08-26T21:45:11.113Z,99807.44
2023-08-26T21:48:13.988Z,99808.31
2023-08-26T21:51:16.566Z,99801.03
2023-08-26T21:54:19.304Z,99798.19
2023-08-26T21:57:21.800Z,99805.59
2023-08-26T22:00:25.032Z,99802.00
2023-08-26T22:03:27.824Z,99803.72
2023-08-26T22:06:30.350Z,99802.09
2023-08-26T22:09:33.202Z,99796.44
2023-08-26T22:12:35.599Z,99786.81
2023-08-26T22:15:42.512Z,99790.84
2023-08-26T22:18:45.108Z,99798.28
2023-08-26T22:21:47.737Z,99789.91
2023-08-26T22:24:50.421Z,99805.13
2023-08-26T22:27:53.094Z,99799.19
2023-08-26T22:30:57.235Z,99801.13
2023-08-26T22:34:00.334Z,99790.13
2023-08-26T22:37:02.768Z,99795.56
2023-08-26T22:40:06.687Z,99778.41
2023-08-26T22:43:09.161Z,99768.62
2023-08-26T22:46:12.072Z,99765.81
2023-08-26T22:49:14.542Z,99764.75
2023-08-26T22:52:17.257Z,99756.75
2023-08-26T22:55:19.757Z,99756.81
2023-08-26T22:58:22.513Z,99762.53
2023-08-26T23:01:25.033Z,99764.25
2023-08-26T23:04:27.811Z,99745.97
2023-08-26T23:07:30.390Z,99752.16
2023-08-26T23:10:33.808Z,99746.94
2023-08-26T23:13:36.167Z,99749.13
2023-08-26T23:16:39.105Z,99738.62
2023-08-26T23:19:41.462Z,99735.72
2023-08-26T23:22:47.474Z,99747.72
2023-08-26T23:25:49.965Z,99733.09
2023-08-26T23:28:53.318Z,99732.31
2023-08-26T23:31:55.883Z,99728.13
2023-08-26T23:35:05.397Z,99725.59
2023-08-26T23:38:07.874Z,99723.16
2023-08-26T23:41:11.077Z,99730.47
2023-08-26T23:44:13.556Z,99717.94
2023-08-26T23:47:16.249Z,99715.94
2023-08-26T23:50:21.684Z,99703.47
2023-08-26T23:53:24.360Z,99708.78
2023-08-26T23:56:26.682Z,99710.38
2023-08-26T23:59:29.380Z,99712.94
